sensor_id;sensor_type;location;lat;lon;timestamp;P1;durP1;ratioP1;P2;durP2;ratioP2
36391;SDS011;22639;42.690;23.356;2022-11-14T00:00:25;82.93;;;42.97;;
36391;SDS011;22639;42.690;23.356;2022-11-14T00:02:51;81.00;;;42.67;;
36391;SDS011;22639;42.690;23.356;2022-11-14T00:05:16;85.83;;;46.43;;
36391;SDS011;22639;42.690;23.356;2022-11-14T00:07:41;90.90;;;49.83;;
36391;SDS011;22639;42.690;23.356;2022-11-14T00:10:07;101.03;;;52.93;;
36391;SDS011;22639;42.690;23.356;2022-11-14T00:12:32;93.03;;;49.17;;
36391;SDS011;22639;42.690;23.356;2022-11-14T00:14:58;106.47;;;53.30;;
36391;SDS011;22639;42.690;23.356;2022-11-14T00:17:23;87.10;;;51.53;;
36391;SDS011;22639;42.690;23.356;2022-11-14T00:19:48;94.50;;;47.87;;
36391;SDS011;22639;42.690;23.356;2022-11-14T00:22:13;94.30;;;50.33;;
36391;SDS011;22639;42.690;23.356;2022-11-14T00:24:39;91.93;;;46.83;;
36391;SDS011;22639;42.690;23.356;2022-11-14T00:27:04;92.13;;;50.07;;
36391;SDS011;22639;42.690;23.356;2022-11-14T00:29:29;82.03;;;43.23;;
36391;SDS011;22639;42.690;23.356;2022-11-14T00:31:54;68.40;;;33.73;;
36391;SDS011;22639;42.690;23.356;2022-11-14T00:34:19;63.10;;;33.33;;
36391;SDS011;22639;42.690;23.356;2022-11-14T00:36:45;59.03;;;30.03;;
36391;SDS011;22639;42.690;23.356;2022-11-14T00:39:13;56.77;;;23.67;;
36391;SDS011;22639;42.690;23.356;2022-11-14T00:41:40;46.20;;;19.27;;
36391;SDS011;22639;42.690;23.356;2022-11-14T00:44:06;43.63;;;18.60;;
36391;SDS011;22639;42.690;23.356;2022-11-14T00:46:32;46.97;;;21.23;;
36391;SDS011;22639;42.690;23.356;2022-11-14T00:48:57;50.80;;;23.37;;
36391;SDS011;22639;42.690;23.356;2022-11-14T00:51:22;42.90;;;20.93;;
36391;SDS011;22639;42.690;23.356;2022-11-14T00:53:48;43.83;;;22.43;;
36391;SDS011;22639;42.690;23.356;2022-11-14T00:56:13;57.33;;;23.03;;
36391;SDS011;22639;42.690;23.356;2022-11-14T00:58:38;45.60;;;25.00;;
36391;SDS011;22639;42.690;23.356;2022-11-14T01:01:03;49.73;;;22.37;;
36391;SDS011;22639;42.690;23.356;2022-11-14T01:03:29;50.60;;;23.87;;
36391;SDS011;22639;42.690;23.356;2022-11-14T01:05:54;55.63;;;22.67;;
36391;SDS011;22639;42.690;23.356;2022-11-14T01:08:19;48.83;;;22.80;;
36391;SDS011;22639;42.690;23.356;2022-11-14T01:10:46;60.03;;;26.33;;
36391;SDS011;22639;42.690;23.356;2022-11-14T01:13:11;69.03;;;26.77;;
36391;SDS011;22639;42.690;23.356;2022-11-14T01:15:41;54.80;;;26.57;;
36391;SDS011;22639;42.690;23.356;2022-11-14T01:18:06;70.33;;;29.83;;
36391;SDS011;22639;42.690;23.356;2022-11-14T01:20:32;60.87;;;26.90;;
36391;SDS011;22639;42.690;23.356;2022-11-14T01:22:57;53.20;;;26.80;;
36391;SDS011;22639;42.690;23.356;2022-11-14T01:25:22;63.20;;;26.47;;
36391;SDS011;22639;42.690;23.356;2022-11-14T01:27:48;61.80;;;27.87;;
36391;SDS011;22639;42.690;23.356;2022-11-14T01:30:13;62.13;;;26.13;;
36391;SDS011;22639;42.690;23.356;2022-11-14T01:32:38;54.17;;;25.03;;
36391;SDS011;22639;42.690;23.356;2022-11-14T01:35:04;59.47;;;25.47;;
36391;SDS011;22639;42.690;23.356;2022-11-14T01:37:29;65.47;;;28.23;;
36391;SDS011;22639;42.690;23.356;2022-11-14T01:39:54;59.07;;;27.60;;
36391;SDS011;22639;42.690;23.356;2022-11-14T01:42:20;59.00;;;27.20;;
36391;SDS011;22639;42.690;23.356;2022-11-14T01:44:49;73.50;;;33.47;;
36391;SDS011;22639;42.690;23.356;2022-11-14T01:47:16;76.87;;;33.40;;
36391;SDS011;22639;42.690;23.356;2022-11-14T01:49:43;72.77;;;33.67;;
36391;SDS011;22639;42.690;23.356;2022-11-14T01:52:11;79.90;;;36.13;;
36391;SDS011;22639;42.690;23.356;2022-11-14T01:54:40;88.33;;;34.43;;
36391;SDS011;22639;42.690;23.356;2022-11-14T01:57:06;79.30;;;31.93;;
36391;SDS011;22639;42.690;23.356;2022-11-14T01:59:33;76.47;;;32.03;;
36391;SDS011;22639;42.690;23.356;2022-11-14T02:02:02;81.43;;;33.00;;
36391;SDS011;22639;42.690;23.356;2022-11-14T02:04:30;77.50;;;31.97;;
36391;SDS011;22639;42.690;23.356;2022-11-14T02:06:57;77.07;;;32.27;;
36391;SDS011;22639;42.690;23.356;2022-11-14T02:09:24;66.97;;;29.33;;
36391;SDS011;22639;42.690;23.356;2022-11-14T02:11:49;64.63;;;28.27;;
36391;SDS011;22639;42.690;23.356;2022-11-14T02:14:15;58.37;;;27.00;;
36391;SDS011;22639;42.690;23.356;2022-11-14T02:16:41;65.50;;;29.27;;
36391;SDS011;22639;42.690;23.356;2022-11-14T02:19:07;68.03;;;27.07;;
36391;SDS011;22639;42.690;23.356;2022-11-14T02:21:33;58.50;;;25.10;;
36391;SDS011;22639;42.690;23.356;2022-11-14T02:23:58;52.40;;;25.27;;
36391;SDS011;22639;42.690;23.356;2022-11-14T02:26:23;57.53;;;24.40;;
36391;SDS011;22639;42.690;23.356;2022-11-14T02:28:48;49.83;;;22.87;;
36391;SDS011;22639;42.690;23.356;2022-11-14T02:31:14;58.67;;;25.23;;
36391;SDS011;22639;42.690;23.356;2022-11-14T02:33:40;51.47;;;24.23;;
36391;SDS011;22639;42.690;23.356;2022-11-14T02:36:05;72.37;;;31.83;;
36391;SDS011;22639;42.690;23.356;2022-11-14T02:38:30;75.40;;;31.70;;
36391;SDS011;22639;42.690;23.356;2022-11-14T02:40:55;70.07;;;33.03;;
36391;SDS011;22639;42.690;23.356;2022-11-14T02:43:23;62.10;;;28.27;;
36391;SDS011;22639;42.690;23.356;2022-11-14T02:45:48;52.50;;;27.03;;
36391;SDS011;22639;42.690;23.356;2022-11-14T02:48:13;60.37;;;27.13;;
36391;SDS011;22639;42.690;23.356;2022-11-14T02:50:38;53.43;;;26.37;;
36391;SDS011;22639;42.690;23.356;2022-11-14T02:53:04;50.40;;;26.10;;
36391;SDS011;22639;42.690;23.356;2022-11-14T02:55:29;57.47;;;27.00;;
36391;SDS011;22639;42.690;23.356;2022-11-14T02:57:55;53.47;;;25.53;;
36391;SDS011;22639;42.690;23.356;2022-11-14T03:00:20;62.30;;;29.00;;
36391;SDS011;22639;42.690;23.356;2022-11-14T03:02:45;58.13;;;27.27;;
36391;SDS011;22639;42.690;23.356;2022-11-14T03:05:10;52.83;;;27.47;;
36391;SDS011;22639;42.690;23.356;2022-11-14T03:07:36;61.47;;;30.20;;
36391;SDS011;22639;42.690;23.356;2022-11-14T03:10:01;57.33;;;29.10;;
36391;SDS011;22639;42.690;23.356;2022-11-14T03:12:26;64.53;;;28.07;;
36391;SDS011;22639;42.690;23.356;2022-11-14T03:14:52;56.47;;;26.93;;
36391;SDS011;22639;42.690;23.356;2022-11-14T03:17:17;65.77;;;28.47;;
36391;SDS011;22639;42.690;23.356;2022-11-14T03:19:42;51.40;;;27.73;;
36391;SDS011;22639;42.690;23.356;2022-11-14T03:22:07;61.97;;;30.50;;
36391;SDS011;22639;42.690;23.356;2022-11-14T03:24:34;65.87;;;27.07;;
36391;SDS011;22639;42.690;23.356;2022-11-14T03:26:59;57.47;;;23.97;;
36391;SDS011;22639;42.690;23.356;2022-11-14T03:29:24;55.40;;;25.87;;
36391;SDS011;22639;42.690;23.356;2022-11-14T03:31:49;76.33;;;26.93;;
36391;SDS011;22639;42.690;23.356;2022-11-14T03:34:15;65.47;;;31.30;;
36391;SDS011;22639;42.690;23.356;2022-11-14T03:36:40;72.57;;;36.40;;
36391;SDS011;22639;42.690;23.356;2022-11-14T03:39:05;59.73;;;30.20;;
36391;SDS011;22639;42.690;23.356;2022-11-14T03:41:31;82.00;;;38.53;;
36391;SDS011;22639;42.690;23.356;2022-11-14T03:43:56;71.23;;;32.70;;
36391;SDS011;22639;42.690;23.356;2022-11-14T03:46:21;65.47;;;32.20;;
36391;SDS011;22639;42.690;23.356;2022-11-14T03:48:47;74.17;;;34.57;;
36391;SDS011;22639;42.690;23.356;2022-11-14T03:51:12;59.63;;;27.83;;
36391;SDS011;22639;42.690;23.356;2022-11-14T03:53:37;65.80;;;26.17;;
36391;SDS011;22639;42.690;23.356;2022-11-14T03:56:02;56.40;;;23.73;;
36391;SDS011;22639;42.690;23.356;2022-11-14T03:58:28;53.40;;;23.80;;
36391;SDS011;22639;42.690;23.356;2022-11-14T04:00:53;51.93;;;24.50;;
36391;SDS011;22639;42.690;23.356;2022-11-14T04:03:20;51.03;;;21.67;;
36391;SDS011;22639;42.690;23.356;2022-11-14T04:05:45;57.90;;;22.87;;
36391;SDS011;22639;42.690;23.356;2022-11-14T04:08:10;43.43;;;23.10;;
36391;SDS011;22639;42.690;23.356;2022-11-14T04:10:36;47.23;;;23.47;;
36391;SDS011;22639;42.690;23.356;2022-11-14T04:13:02;43.43;;;21.23;;
36391;SDS011;22639;42.690;23.356;2022-11-14T04:15:28;51.67;;;20.97;;
36391;SDS011;22639;42.690;23.356;2022-11-14T04:17:53;50.20;;;21.93;;
36391;SDS011;22639;42.690;23.356;2022-11-14T04:20:18;53.13;;;22.23;;
36391;SDS011;22639;42.690;23.356;2022-11-14T04:22:44;43.03;;;21.43;;
36391;SDS011;22639;42.690;23.356;2022-11-14T04:25:10;53.87;;;19.43;;
36391;SDS011;22639;42.690;23.356;2022-11-14T04:27:35;64.73;;;20.70;;
36391;SDS011;22639;42.690;23.356;2022-11-14T04:30:00;38.57;;;17.77;;
36391;SDS011;22639;42.690;23.356;2022-11-14T04:32:29;33.87;;;17.73;;
36391;SDS011;22639;42.690;23.356;2022-11-14T04:34:54;43.43;;;19.23;;
36391;SDS011;22639;42.690;23.356;2022-11-14T04:37:19;44.33;;;20.07;;
36391;SDS011;22639;42.690;23.356;2022-11-14T04:39:45;45.37;;;18.90;;
36391;SDS011;22639;42.690;23.356;2022-11-14T04:42:10;38.03;;;17.47;;
36391;SDS011;22639;42.690;23.356;2022-11-14T04:44:35;43.67;;;19.07;;
36391;SDS011;22639;42.690;23.356;2022-11-14T04:47:01;33.13;;;18.17;;
36391;SDS011;22639;42.690;23.356;2022-11-14T04:49:26;40.40;;;18.40;;
36391;SDS011;22639;42.690;23.356;2022-11-14T04:51:51;32.43;;;18.63;;
36391;SDS011;22639;42.690;23.356;2022-11-14T04:54:16;32.93;;;18.13;;
36391;SDS011;22639;42.690;23.356;2022-11-14T04:56:41;42.23;;;19.77;;
36391;SDS011;22639;42.690;23.356;2022-11-14T04:59:07;51.40;;;19.57;;
36391;SDS011;22639;42.690;23.356;2022-11-14T05:01:32;42.70;;;19.13;;
36391;SDS011;22639;42.690;23.356;2022-11-14T05:03:57;38.80;;;21.47;;
36391;SDS011;22639;42.690;23.356;2022-11-14T05:06:22;35.33;;;19.60;;
36391;SDS011;22639;42.690;23.356;2022-11-14T05:08:48;31.63;;;19.10;;
36391;SDS011;22639;42.690;23.356;2022-11-14T05:11:17;32.30;;;21.07;;
36391;SDS011;22639;42.690;23.356;2022-11-14T05:13:42;32.43;;;20.13;;
36391;SDS011;22639;42.690;23.356;2022-11-14T05:16:08;32.70;;;17.50;;
36391;SDS011;22639;42.690;23.356;2022-11-14T05:18:33;30.77;;;16.80;;
36391;SDS011;22639;42.690;23.356;2022-11-14T05:20:58;41.33;;;15.93;;
36391;SDS011;22639;42.690;23.356;2022-11-14T05:23:24;31.10;;;16.83;;
36391;SDS011;22639;42.690;23.356;2022-11-14T05:26:00;30.43;;;16.43;;
36391;SDS011;22639;42.690;23.356;2022-11-14T05:28:25;41.70;;;16.73;;
36391;SDS011;22639;42.690;23.356;2022-11-14T05:30:50;53.00;;;16.97;;
36391;SDS011;22639;42.690;23.356;2022-11-14T05:33:15;44.77;;;17.70;;
36391;SDS011;22639;42.690;23.356;2022-11-14T05:35:41;30.43;;;14.80;;
36391;SDS011;22639;42.690;23.356;2022-11-14T05:38:06;27.00;;;16.23;;
36391;SDS011;22639;42.690;23.356;2022-11-14T05:40:31;29.67;;;15.43;;
36391;SDS011;22639;42.690;23.356;2022-11-14T05:42:56;32.93;;;17.37;;
36391;SDS011;22639;42.690;23.356;2022-11-14T05:45:21;40.57;;;17.27;;
36391;SDS011;22639;42.690;23.356;2022-11-14T05:47:47;34.93;;;19.03;;
36391;SDS011;22639;42.690;23.356;2022-11-14T05:50:12;37.50;;;17.77;;
36391;SDS011;22639;42.690;23.356;2022-11-14T05:52:37;36.20;;;18.57;;
36391;SDS011;22639;42.690;23.356;2022-11-14T05:55:02;37.30;;;17.43;;
36391;SDS011;22639;42.690;23.356;2022-11-14T05:57:29;34.13;;;16.07;;
36391;SDS011;22639;42.690;23.356;2022-11-14T05:59:54;30.23;;;14.17;;
36391;SDS011;22639;42.690;23.356;2022-11-14T06:02:20;30.60;;;16.67;;
36391;SDS011;22639;42.690;23.356;2022-11-14T06:04:45;23.53;;;14.30;;
36391;SDS011;22639;42.690;23.356;2022-11-14T06:07:11;30.57;;;15.17;;
36391;SDS011;22639;42.690;23.356;2022-11-14T06:09:36;25.57;;;13.57;;
36391;SDS011;22639;42.690;23.356;2022-11-14T06:12:01;30.67;;;13.30;;
36391;SDS011;22639;42.690;23.356;2022-11-14T06:14:30;24.40;;;14.40;;
36391;SDS011;22639;42.690;23.356;2022-11-14T06:16:55;30.53;;;16.10;;
36391;SDS011;22639;42.690;23.356;2022-11-14T06:19:20;33.77;;;17.90;;
36391;SDS011;22639;42.690;23.356;2022-11-14T06:21:45;36.17;;;16.30;;
36391;SDS011;22639;42.690;23.356;2022-11-14T06:24:11;34.07;;;16.63;;
36391;SDS011;22639;42.690;23.356;2022-11-14T06:26:36;30.90;;;15.23;;
36391;SDS011;22639;42.690;23.356;2022-11-14T06:29:01;27.53;;;15.17;;
36391;SDS011;22639;42.690;23.356;2022-11-14T06:31:27;33.20;;;16.63;;
36391;SDS011;22639;42.690;23.356;2022-11-14T06:33:52;37.77;;;15.97;;
36391;SDS011;22639;42.690;23.356;2022-11-14T06:36:17;30.97;;;15.73;;
36391;SDS011;22639;42.690;23.356;2022-11-14T06:38:43;27.47;;;15.63;;
36391;SDS011;22639;42.690;23.356;2022-11-14T06:43:34;35.53;;;16.13;;
36391;SDS011;22639;42.690;23.356;2022-11-14T06:45:59;31.67;;;16.83;;
36391;SDS011;22639;42.690;23.356;2022-11-14T06:48:25;36.37;;;17.90;;
36391;SDS011;22639;42.690;23.356;2022-11-14T06:50:51;28.53;;;15.33;;
36391;SDS011;22639;42.690;23.356;2022-11-14T06:53:16;30.57;;;15.87;;
36391;SDS011;22639;42.690;23.356;2022-11-14T06:55:41;34.43;;;16.70;;
36391;SDS011;22639;42.690;23.356;2022-11-14T06:58:07;30.37;;;15.60;;
36391;SDS011;22639;42.690;23.356;2022-11-14T07:00:32;27.37;;;15.70;;
36391;SDS011;22639;42.690;23.356;2022-11-14T07:02:57;32.90;;;17.30;;
36391;SDS011;22639;42.690;23.356;2022-11-14T07:05:23;30.33;;;17.83;;
36391;SDS011;22639;42.690;23.356;2022-11-14T07:07:48;33.43;;;16.90;;
36391;SDS011;22639;42.690;23.356;2022-11-14T07:10:13;32.33;;;16.70;;
36391;SDS011;22639;42.690;23.356;2022-11-14T07:12:39;31.30;;;18.37;;
36391;SDS011;22639;42.690;23.356;2022-11-14T07:15:04;32.90;;;17.63;;
36391;SDS011;22639;42.690;23.356;2022-11-14T07:17:29;44.13;;;20.43;;
36391;SDS011;22639;42.690;23.356;2022-11-14T07:19:55;41.43;;;22.17;;
36391;SDS011;22639;42.690;23.356;2022-11-14T07:22:20;33.23;;;17.50;;
36391;SDS011;22639;42.690;23.356;2022-11-14T07:24:45;39.87;;;17.60;;
36391;SDS011;22639;42.690;23.356;2022-11-14T07:27:10;32.93;;;19.53;;
36391;SDS011;22639;42.690;23.356;2022-11-14T07:29:36;34.50;;;19.87;;
36391;SDS011;22639;42.690;23.356;2022-11-14T07:32:01;40.87;;;21.13;;
36391;SDS011;22639;42.690;23.356;2022-11-14T07:34:26;37.70;;;17.93;;
36391;SDS011;22639;42.690;23.356;2022-11-14T07:36:51;41.17;;;18.17;;
36391;SDS011;22639;42.690;23.356;2022-11-14T07:39:19;41.00;;;20.80;;
36391;SDS011;22639;42.690;23.356;2022-11-14T07:41:44;39.80;;;19.80;;
36391;SDS011;22639;42.690;23.356;2022-11-14T07:44:09;40.80;;;19.70;;
36391;SDS011;22639;42.690;23.356;2022-11-14T07:46:35;31.63;;;19.27;;
36391;SDS011;22639;42.690;23.356;2022-11-14T07:49:00;36.47;;;17.57;;
36391;SDS011;22639;42.690;23.356;2022-11-14T07:51:25;37.37;;;19.70;;
36391;SDS011;22639;42.690;23.356;2022-11-14T07:53:51;37.80;;;19.30;;
36391;SDS011;22639;42.690;23.356;2022-11-14T07:56:17;46.20;;;21.83;;
36391;SDS011;22639;42.690;23.356;2022-11-14T07:58:44;37.57;;;21.20;;
36391;SDS011;22639;42.690;23.356;2022-11-14T08:01:10;33.97;;;20.63;;
36391;SDS011;22639;42.690;23.356;2022-11-14T08:03:35;34.83;;;19.73;;
36391;SDS011;22639;42.690;23.356;2022-11-14T08:06:06;41.13;;;22.50;;
36391;SDS011;22639;42.690;23.356;2022-11-14T08:08:32;37.10;;;18.70;;
36391;SDS011;22639;42.690;23.356;2022-11-14T08:10:58;33.57;;;19.43;;
36391;SDS011;22639;42.690;23.356;2022-11-14T08:13:24;34.67;;;18.80;;
36391;SDS011;22639;42.690;23.356;2022-11-14T08:15:50;39.30;;;19.90;;
36391;SDS011;22639;42.690;23.356;2022-11-14T08:18:15;32.50;;;18.90;;
36391;SDS011;22639;42.690;23.356;2022-11-14T08:20:41;32.13;;;19.43;;
36391;SDS011;22639;42.690;23.356;2022-11-14T08:23:06;32.60;;;18.77;;
36391;SDS011;22639;42.690;23.356;2022-11-14T08:25:31;37.00;;;20.57;;
36391;SDS011;22639;42.690;23.356;2022-11-14T08:27:57;31.67;;;18.47;;
36391;SDS011;22639;42.690;23.356;2022-11-14T08:30:22;36.13;;;21.30;;
36391;SDS011;22639;42.690;23.356;2022-11-14T08:32:47;36.03;;;18.47;;
36391;SDS011;22639;42.690;23.356;2022-11-14T08:35:12;31.03;;;19.00;;
36391;SDS011;22639;42.690;23.356;2022-11-14T08:37:38;31.37;;;18.90;;
36391;SDS011;22639;42.690;23.356;2022-11-14T08:40:03;36.57;;;19.13;;
36391;SDS011;22639;42.690;23.356;2022-11-14T08:42:28;39.47;;;20.63;;
36391;SDS011;22639;42.690;23.356;2022-11-14T08:44:54;37.60;;;20.13;;
36391;SDS011;22639;42.690;23.356;2022-11-14T08:47:19;32.70;;;21.10;;
36391;SDS011;22639;42.690;23.356;2022-11-14T08:49:44;32.97;;;20.40;;
36391;SDS011;22639;42.690;23.356;2022-11-14T08:52:09;32.33;;;20.87;;
36391;SDS011;22639;42.690;23.356;2022-11-14T08:54:35;38.57;;;22.80;;
36391;SDS011;22639;42.690;23.356;2022-11-14T08:57:00;39.80;;;22.93;;
36391;SDS011;22639;42.690;23.356;2022-11-14T08:59:25;47.17;;;23.97;;
36391;SDS011;22639;42.690;23.356;2022-11-14T09:01:51;45.43;;;25.93;;
36391;SDS011;22639;42.690;23.356;2022-11-14T09:04:16;48.37;;;26.47;;
36391;SDS011;22639;42.690;23.356;2022-11-14T09:06:41;47.50;;;27.50;;
36391;SDS011;22639;42.690;23.356;2022-11-14T09:09:06;48.50;;;28.40;;
36391;SDS011;22639;42.690;23.356;2022-11-14T09:11:32;49.27;;;28.07;;
36391;SDS011;22639;42.690;23.356;2022-11-14T09:13:57;56.03;;;30.30;;
36391;SDS011;22639;42.690;23.356;2022-11-14T09:16:22;55.37;;;29.63;;
36391;SDS011;22639;42.690;23.356;2022-11-14T09:18:47;50.97;;;29.53;;
36391;SDS011;22639;42.690;23.356;2022-11-14T09:21:13;54.90;;;30.83;;
36391;SDS011;22639;42.690;23.356;2022-11-14T09:23:38;49.77;;;26.77;;
36391;SDS011;22639;42.690;23.356;2022-11-14T09:26:07;54.30;;;27.43;;
36391;SDS011;22639;42.690;23.356;2022-11-14T09:28:32;50.50;;;26.67;;
36391;SDS011;22639;42.690;23.356;2022-11-14T09:30:59;49.87;;;26.73;;
36391;SDS011;22639;42.690;23.356;2022-11-14T09:33:24;50.03;;;27.77;;
36391;SDS011;22639;42.690;23.356;2022-11-14T09:35:54;50.97;;;26.23;;
36391;SDS011;22639;42.690;23.356;2022-11-14T09:38:20;54.90;;;27.27;;
36391;SDS011;22639;42.690;23.356;2022-11-14T09:45:54;53.03;;;28.10;;
36391;SDS011;22639;42.690;23.356;2022-11-14T09:48:20;45.03;;;27.80;;
36391;SDS011;22639;42.690;23.356;2022-11-14T09:50:52;56.30;;;28.23;;
36391;SDS011;22639;42.690;23.356;2022-11-14T09:53:30;49.80;;;28.80;;
36391;SDS011;22639;42.690;23.356;2022-11-14T09:55:57;52.53;;;28.13;;
36391;SDS011;22639;42.690;23.356;2022-11-14T09:58:22;50.30;;;29.30;;
36391;SDS011;22639;42.690;23.356;2022-11-14T10:00:55;51.70;;;28.53;;
36391;SDS011;22639;42.690;23.356;2022-11-14T10:06:43;47.43;;;28.57;;
36391;SDS011;22639;42.690;23.356;2022-11-14T10:11:31;48.73;;;27.03;;
36391;SDS011;22639;42.690;23.356;2022-11-14T10:16:49;46.37;;;29.00;;
36391;SDS011;22639;42.690;23.356;2022-11-14T10:19:22;48.90;;;28.97;;
36391;SDS011;22639;42.690;23.356;2022-11-14T10:27:00;50.80;;;28.67;;
36391;SDS011;22639;42.690;23.356;2022-11-14T10:40:12;36.67;;;25.13;;
36391;SDS011;22639;42.690;23.356;2022-11-14T10:42:39;41.80;;;25.25;;
36391;SDS011;22639;42.690;23.356;2022-11-14T10:45:27;39.67;;;24.27;;
36391;SDS011;22639;42.690;23.356;2022-11-14T10:47:59;37.30;;;24.73;;
36391;SDS011;22639;42.690;23.356;2022-11-14T10:50:32;40.45;;;25.70;;
36391;SDS011;22639;42.690;23.356;2022-11-14T10:53:00;45.10;;;27.42;;
36391;SDS011;22639;42.690;23.356;2022-11-14T10:55:26;46.25;;;27.70;;
36391;SDS011;22639;42.690;23.356;2022-11-14T10:57:51;47.35;;;27.05;;
36391;SDS011;22639;42.690;23.356;2022-11-14T11:00:17;45.75;;;27.75;;
36391;SDS011;22639;42.690;23.356;2022-11-14T11:05:15;44.63;;;26.95;;
36391;SDS011;22639;42.690;23.356;2022-11-14T11:07:44;46.47;;;28.50;;
36391;SDS011;22639;42.690;23.356;2022-11-14T11:10:29;50.43;;;28.77;;
36391;SDS011;22639;42.690;23.356;2022-11-14T11:13:14;48.63;;;29.43;;
36391;SDS011;22639;42.690;23.356;2022-11-14T11:15:53;51.47;;;27.97;;
36391;SDS011;22639;42.690;23.356;2022-11-14T11:18:32;47.50;;;28.47;;
36391;SDS011;22639;42.690;23.356;2022-11-14T11:21:19;46.17;;;28.87;;
36391;SDS011;22639;42.690;23.356;2022-11-14T11:23:50;49.87;;;31.57;;
36391;SDS011;22639;42.690;23.356;2022-11-14T11:26:20;54.70;;;29.50;;
36391;SDS011;22639;42.690;23.356;2022-11-14T11:32:03;50.67;;;31.97;;
36391;SDS011;22639;42.690;23.356;2022-11-14T11:34:25;53.37;;;32.13;;
36391;SDS011;22639;42.690;23.356;2022-11-14T11:36:56;50.90;;;31.37;;
36391;SDS011;22639;42.690;23.356;2022-11-14T11:39:24;48.33;;;29.30;;
36391;SDS011;22639;42.690;23.356;2022-11-14T11:41:50;47.10;;;29.57;;
36391;SDS011;22639;42.690;23.356;2022-11-14T11:44:16;52.30;;;29.67;;
36391;SDS011;22639;42.690;23.356;2022-11-14T11:49:15;49.00;;;29.93;;
36391;SDS011;22639;42.690;23.356;2022-11-14T11:51:41;55.33;;;30.77;;
36391;SDS011;22639;42.690;23.356;2022-11-14T11:54:16;45.77;;;28.53;;
36391;SDS011;22639;42.690;23.356;2022-11-14T11:56:43;46.07;;;30.17;;
36391;SDS011;22639;42.690;23.356;2022-11-14T11:59:16;50.03;;;30.20;;
36391;SDS011;22639;42.690;23.356;2022-11-14T12:01:46;47.83;;;28.00;;
36391;SDS011;22639;42.690;23.356;2022-11-14T12:04:11;48.27;;;31.07;;
36391;SDS011;22639;42.690;23.356;2022-11-14T12:06:41;48.23;;;29.57;;
36391;SDS011;22639;42.690;23.356;2022-11-14T12:09:18;50.77;;;29.93;;
36391;SDS011;22639;42.690;23.356;2022-11-14T12:11:50;53.63;;;29.87;;
36391;SDS011;22639;42.690;23.356;2022-11-14T12:32:37;55.97;;;31.23;;
36391;SDS011;22639;42.690;23.356;2022-11-14T12:35:04;51.23;;;32.27;;
36391;SDS011;22639;42.690;23.356;2022-11-14T12:37:32;57.67;;;32.10;;
36391;SDS011;22639;42.690;23.356;2022-11-14T12:40:02;54.97;;;31.57;;
36391;SDS011;22639;42.690;23.356;2022-11-14T12:42:29;59.60;;;32.70;;
36391;SDS011;22639;42.690;23.356;2022-11-14T12:44:55;56.27;;;31.23;;
36391;SDS011;22639;42.690;23.356;2022-11-14T12:47:24;49.20;;;31.67;;
36391;SDS011;22639;42.690;23.356;2022-11-14T12:55:02;53.60;;;33.80;;
36391;SDS011;22639;42.690;23.356;2022-11-14T12:57:34;55.63;;;32.73;;
36391;SDS011;22639;42.690;23.356;2022-11-14T13:00:12;56.87;;;32.23;;
36391;SDS011;22639;42.690;23.356;2022-11-14T13:05:32;57.13;;;34.57;;
36391;SDS011;22639;42.690;23.356;2022-11-14T13:10:38;57.70;;;34.10;;
36391;SDS011;22639;42.690;23.356;2022-11-14T13:15:54;55.20;;;33.83;;
36391;SDS011;22639;42.690;23.356;2022-11-14T13:18:49;54.87;;;34.17;;
36391;SDS011;22639;42.690;23.356;2022-11-14T13:21:34;53.03;;;32.20;;
36391;SDS011;22639;42.690;23.356;2022-11-14T13:24:18;56.60;;;33.57;;
36391;SDS011;22639;42.690;23.356;2022-11-14T13:32:12;61.47;;;36.50;;
36391;SDS011;22639;42.690;23.356;2022-11-14T13:34:58;57.83;;;34.53;;
36391;SDS011;22639;42.690;23.356;2022-11-14T13:39:58;62.37;;;37.20;;
36391;SDS011;22639;42.690;23.356;2022-11-14T13:45:24;70.10;;;37.27;;
36391;SDS011;22639;42.690;23.356;2022-11-14T13:50:39;60.13;;;35.97;;
36391;SDS011;22639;42.690;23.356;2022-11-14T13:53:18;58.73;;;37.43;;
36391;SDS011;22639;42.690;23.356;2022-11-14T13:55:55;67.80;;;37.00;;
36391;SDS011;22639;42.690;23.356;2022-11-14T14:05:54;65.37;;;38.47;;
36391;SDS011;22639;42.690;23.356;2022-11-14T14:15:53;62.43;;;37.17;;
36391;SDS011;22639;42.690;23.356;2022-11-14T14:31:42;74.07;;;42.13;;
36391;SDS011;22639;42.690;23.356;2022-11-14T14:34:20;69.40;;;40.03;;
36391;SDS011;22639;42.690;23.356;2022-11-14T14:36:50;66.70;;;39.63;;
36391;SDS011;22639;42.690;23.356;2022-11-14T14:41:44;65.57;;;40.00;;
36391;SDS011;22639;42.690;23.356;2022-11-14T14:44:21;70.13;;;42.07;;
36391;SDS011;22639;42.690;23.356;2022-11-14T14:46:47;64.47;;;40.40;;
36391;SDS011;22639;42.690;23.356;2022-11-14T14:49:15;70.90;;;41.37;;
36391;SDS011;22639;42.690;23.356;2022-11-14T14:51:42;70.27;;;41.67;;
36391;SDS011;22639;42.690;23.356;2022-11-14T14:54:17;69.10;;;41.37;;
36391;SDS011;22639;42.690;23.356;2022-11-14T14:56:51;80.90;;;43.60;;
36391;SDS011;22639;42.690;23.356;2022-11-14T14:59:17;71.03;;;42.80;;
36391;SDS011;22639;42.690;23.356;2022-11-14T15:01:43;78.23;;;43.77;;
36391;SDS011;22639;42.690;23.356;2022-11-14T15:04:10;78.30;;;43.63;;
36391;SDS011;22639;42.690;23.356;2022-11-14T15:06:38;84.47;;;43.00;;
36391;SDS011;22639;42.690;23.356;2022-11-14T15:09:08;78.67;;;43.60;;
36391;SDS011;22639;42.690;23.356;2022-11-14T15:11:34;75.57;;;45.03;;
36391;SDS011;22639;42.690;23.356;2022-11-14T15:14:00;75.93;;;44.50;;
36391;SDS011;22639;42.690;23.356;2022-11-14T15:16:26;80.20;;;43.13;;
36391;SDS011;22639;42.690;23.356;2022-11-14T15:18:52;72.60;;;47.03;;
36391;SDS011;22639;42.690;23.356;2022-11-14T15:24:24;76.73;;;42.23;;
36391;SDS011;22639;42.690;23.356;2022-11-14T15:26:43;74.73;;;44.77;;
36391;SDS011;22639;42.690;23.356;2022-11-14T15:29:19;90.47;;;48.40;;
36391;SDS011;22639;42.690;23.356;2022-11-14T15:31:58;77.63;;;46.90;;
36391;SDS011;22639;42.690;23.356;2022-11-14T15:34:31;77.93;;;46.27;;
36391;SDS011;22639;42.690;23.356;2022-11-14T15:39:32;89.23;;;50.23;;
36391;SDS011;22639;42.690;23.356;2022-11-14T15:42:14;81.03;;;50.47;;
36391;SDS011;22639;42.690;23.356;2022-11-14T15:44:39;87.13;;;51.63;;
36391;SDS011;22639;42.690;23.356;2022-11-14T15:47:16;109.10;;;67.13;;
36391;SDS011;22639;42.690;23.356;2022-11-14T15:49:50;118.40;;;72.40;;
36391;SDS011;22639;42.690;23.356;2022-11-14T15:52:23;127.37;;;76.30;;
36391;SDS011;22639;42.690;23.356;2022-11-14T15:54:49;114.97;;;69.83;;
36391;SDS011;22639;42.690;23.356;2022-11-14T15:57:15;137.80;;;81.67;;
36391;SDS011;22639;42.690;23.356;2022-11-14T15:59:41;126.37;;;79.90;;
36391;SDS011;22639;42.690;23.356;2022-11-14T16:02:11;130.87;;;82.30;;
36391;SDS011;22639;42.690;23.356;2022-11-14T16:04:36;146.03;;;96.83;;
36391;SDS011;22639;42.690;23.356;2022-11-14T16:07:03;117.13;;;72.27;;
36391;SDS011;22639;42.690;23.356;2022-11-14T16:09:28;107.70;;;68.37;;